Time;durP1;ratioP1;P1;durP2;ratioP2;P2;SDS_P1;SDS_P2;PMS_P1;PMS_P2;Temp;Humidity;BMP_temperature;BMP_pressure;BME280_temperature;BME280_humidity;BME280_pressure;Samples;Min_cycle;Max_cycle;Signal;HPM_P1;HPM_P2
2023/08/23 00:01:20;;;;;;;8.45;3.72;;;;;;;16.41;100.00;101870.38;4904853;29;20063;-83
2023/08/23 00:03:46;;;;;;;7.73;3.90;;;;;;;16.39;100.00;101869.78;4937101;29;20119;-83
2023/08/23 00:06:11;;;;;;;6.67;2.93;;;;;;;16.36;100.00;101871.06;4920209;29;20382;-84
2023/08/23 00:08:37;;;;;;;5.47;3.77;;;;;;;16.35;100.00;101861.19;4936137;29;20070;-84
2023/08/23 00:11:02;;;;;;;3.83;3.03;;;;;;;16.29;100.00;101854.72;4936652;29;20067;-84
2023/08/23 00:13:27;;;;;;;7.57;3.53;;;;;;;16.24;100.00;101854.56;4919730;29;20031;-84
2023/08/23 00:15:53;;;;;;;5.43;3.57;;;;;;;16.22;100.00;101858.59;4920473;29;20152;-84
2023/08/23 00:18:18;;;;;;;3.83;3.17;;;;;;;16.18;100.00;101860.97;4904181;29;20311;-84
2023/08/23 00:20:43;;;;;;;6.60;3.37;;;;;;;16.14;100.00;101857.84;4937108;29;20038;-84
2023/08/23 00:23:09;;;;;;;6.13;3.70;;;;;;;16.11;100.00;101860.22;4936492;29;20028;-84
2023/08/23 00:25:34;;;;;;;6.53;3.67;;;;;;;16.08;100.00;101849.72;4920255;29;20059;-84
2023/08/23 00:27:59;;;;;;;6.27;3.83;;;;;;;16.05;100.00;101855.66;4919701;29;20059;-84
2023/08/23 00:30:25;;;;;;;5.30;3.40;;;;;;;16.03;100.00;101861.31;4919992;29;20036;-88
2023/08/23 00:32:50;;;;;;;4.63;3.30;;;;;;;15.98;100.00;101852.16;4919738;29;20032;-84
2023/08/23 00:35:15;;;;;;;3.40;3.10;;;;;;;15.92;100.00;101851.16;4936368;29;20031;-84
2023/08/23 00:37:41;;;;;;;8.77;2.80;;;;;;;15.88;100.00;101847.19;4936859;29;20031;-84
2023/08/23 00:40:10;;;;;;;6.70;3.20;;;;;;;15.83;100.00;101842.41;4936574;29;20123;-84
2023/08/23 00:42:36;;;;;;;4.45;3.03;;;;;;;15.78;100.00;101848.56;4936535;29;20032;-84
2023/08/23 00:45:01;;;;;;;5.10;2.67;;;;;;;15.77;100.00;101843.28;4919327;29;20054;-84
2023/08/23 00:47:27;;;;;;;5.97;2.60;;;;;;;15.72;100.00;101835.75;4919405;29;20039;-84
2023/08/23 00:49:52;;;;;;;4.20;2.33;;;;;;;15.72;100.00;101843.09;4919509;29;20067;-84
2023/08/23 00:52:18;;;;;;;3.43;2.00;;;;;;;15.70;100.00;101837.03;4919482;29;20131;-84
2023/08/23 00:54:45;;;;;;;4.53;2.10;;;;;;;15.67;100.00;101843.78;4936390;29;20358;-84
2023/08/23 00:57:11;;;;;;;3.50;2.03;;;;;;;15.62;100.00;101832.69;4919285;29;20043;-84
2023/08/23 00:59:37;;;;;;;6.65;2.33;;;;;;;15.54;100.00;101838.44;4936623;29;20552;-84
2023/08/23 01:02:02;;;;;;;3.53;2.40;;;;;;;15.53;100.00;101836.75;4919207;29;20135;-84
2023/08/23 01:04:27;;;;;;;3.87;2.10;;;;;;;15.48;100.00;101833.88;4936403;29;20075;-84
2023/08/23 01:07:03;;;;;;;5.70;2.40;;;;;;;15.44;100.00;101836.19;4919375;29;20035;-84
2023/08/23 01:09:40;;;;;;;3.33;2.35;;;;;;;15.41;100.00;101828.44;4936466;29;20032;-84
2023/08/23 01:12:15;;;;;;;3.53;2.30;;;;;;;15.36;100.00;101834.59;4919488;29;20028;-83
2023/08/23 01:15:02;;;;;;;4.13;2.58;;;;;;;15.32;100.00;101832.53;4936332;29;20032;-84
2023/08/23 01:17:29;;;;;;;3.38;2.58;;;;;;;15.32;100.00;101840.72;4919713;29;20044;-83
2023/08/23 01:19:56;;;;;;;7.07;2.67;;;;;;;15.33;100.00;101842.41;4938137;29;20122;-84
2023/08/23 01:22:22;;;;;;;3.80;2.90;;;;;;;15.33;100.00;101837.78;4940324;29;20040;-84
2023/08/23 01:24:49;;;;;;;4.07;2.57;;;;;;;15.32;100.00;101840.72;4940041;29;20035;-84
2023/08/23 01:27:18;;;;;;;4.32;2.80;;;;;;;15.30;100.00;101842.88;4907167;29;20035;-85
2023/08/23 01:29:45;;;;;;;4.38;3.00;;;;;;;15.27;100.00;101841.41;4922681;29;20047;-83
2023/08/23 01:32:38;;;;;;;4.20;3.15;;;;;;;15.29;100.00;101844.72;4939802;29;20042;-84
2023/08/23 01:35:21;;;;;;;4.97;2.97;;;;;;;15.28;100.00;101845.81;4922632;29;20491;-84
2023/08/23 01:37:52;;;;;;;7.97;3.20;;;;;;;15.24;100.00;101844.59;4939733;29;20483;-83
2023/08/23 01:40:18;;;;;;;4.90;3.10;;;;;;;15.20;100.00;101840.63;4939719;29;20028;-84
2023/08/23 01:42:45;;;;;;;4.43;3.08;;;;;;;15.15;100.00;101832.25;4939381;29;20031;-84
2023/08/23 01:45:11;;;;;;;4.28;2.92;;;;;;;15.11;100.00;101833.75;4939890;29;20028;-83
2023/08/23 01:47:36;;;;;;;4.50;2.87;;;;;;;15.08;100.00;101822.19;4939579;29;20027;-84
2023/08/23 01:50:03;;;;;;;4.17;2.60;;;;;;;15.04;100.00;101823.72;4922853;29;20035;-83
2023/08/23 01:52:28;;;;;;;5.85;3.05;;;;;;;15.03;100.00;101826.66;4922090;29;20100;-83
2023/08/23 01:54:54;;;;;;;8.53;3.23;;;;;;;15.05;100.00;101830.00;4906555;29;20039;-84
2023/08/23 01:57:19;;;;;;;4.63;2.77;;;;;;;15.03;100.00;101832.97;4939644;29;20468;-83
2023/08/23 01:59:46;;;;;;;4.83;3.20;;;;;;;15.02;100.00;101827.72;4939290;29;20038;-83
2023/08/23 02:02:11;;;;;;;5.13;2.90;;;;;;;14.99;100.00;101833.63;4939272;29;20036;-83
2023/08/23 02:04:36;;;;;;;4.30;2.60;;;;;;;14.97;100.00;101838.47;4939281;29;20468;-83
2023/08/23 02:07:02;;;;;;;3.20;2.72;;;;;;;14.93;100.00;101829.06;4922281;29;20039;-83
2023/08/23 02:09:28;;;;;;;4.83;2.90;;;;;;;14.91;100.00;101829.25;4922095;29;20050;-84
2023/08/23 02:11:53;;;;;;;5.47;3.00;;;;;;;14.89;100.00;101825.91;4939109;29;20119;-83
2023/08/23 02:14:19;;;;;;;4.27;2.83;;;;;;;14.86;100.00;101832.63;4921985;29;20027;-84
2023/08/23 02:16:44;;;;;;;4.60;2.80;;;;;;;14.87;100.00;101825.31;4921696;29;20175;-83
2023/08/23 02:19:09;;;;;;;5.47;2.83;;;;;;;14.85;100.00;101822.78;4922064;29;20043;-83
2023/08/23 02:21:35;;;;;;;4.33;2.43;;;;;;;14.83;100.00;101829.53;4938937;29;20043;-84
2023/08/23 02:24:01;;;;;;;4.53;2.80;;;;;;;14.81;100.00;101837.13;4921794;29;20024;-84
2023/08/23 02:26:27;;;;;;;7.30;2.80;;;;;;;14.78;100.00;101832.06;4939211;29;20023;-83
2023/08/23 02:28:52;;;;;;;4.32;2.80;;;;;;;14.71;100.00;101829.38;4938834;29;20408;-83
2023/08/23 02:31:17;;;;;;;5.80;3.23;;;;;;;14.66;100.00;101827.31;4904946;29;20151;-84
2023/08/23 02:33:43;;;;;;;5.23;3.17;;;;;;;14.65;100.00;101828.34;4938743;29;20063;-83
2023/08/23 02:36:08;;;;;;;8.53;3.27;;;;;;;14.64;100.00;101834.03;4938677;29;20729;-84
2023/08/23 02:38:34;;;;;;;6.13;3.30;;;;;;;14.63;100.00;101829.63;4921595;29;20039;-84
2023/08/23 02:40:59;;;;;;;7.37;3.30;;;;;;;14.61;100.00;101826.25;4921780;29;20038;-84
2023/08/23 02:43:24;;;;;;;4.20;2.60;;;;;;;14.61;100.00;101829.84;4938554;29;20067;-83
2023/08/23 02:45:50;;;;;;;7.80;3.10;;;;;;;14.59;100.00;101823.75;4938464;29;20039;-83
2023/08/23 02:48:15;;;;;;;5.82;2.33;;;;;;;14.59;100.00;101831.13;4921496;29;20032;-83
2023/08/23 02:50:42;;;;;;;6.63;2.73;;;;;;;14.53;100.00;101830.09;4905438;29;20059;-84
2023/08/23 02:53:08;;;;;;;6.57;2.97;;;;;;;14.51;100.00;101832.19;4938119;29;20537;-83
2023/08/23 02:55:35;;;;;;;3.40;2.50;;;;;;;14.47;100.00;101828.22;4938100;29;20070;-83
2023/08/23 02:58:01;;;;;;;4.05;2.63;;;;;;;14.44;100.00;101823.19;4938696;29;20127;-83
2023/08/23 03:00:26;;;;;;;5.60;2.53;;;;;;;14.39;100.00;101812.91;4921333;29;20520;-83
2023/08/23 03:02:52;;;;;;;4.23;2.53;;;;;;;14.39;100.00;101811.03;4921763;29;20059;-83
2023/08/23 03:05:17;;;;;;;6.47;2.80;;;;;;;14.40;100.00;101809.13;4921467;29;20389;-83
2023/08/23 03:07:42;;;;;;;4.88;2.90;;;;;;;14.33;100.00;101802.88;4938150;29;20040;-84
2023/08/23 03:10:09;;;;;;;5.27;3.00;;;;;;;14.30;100.00;101809.59;4921160;29;20059;-83
2023/08/23 03:12:34;;;;;;;8.20;2.80;;;;;;;14.28;100.00;101814.44;4937690;29;20465;-83
2023/08/23 03:14:59;;;;;;;6.55;2.67;;;;;;;14.29;100.00;101818.00;4921206;29;20027;-83
2023/08/23 03:17:25;;;;;;;7.30;2.80;;;;;;;14.27;100.00;101812.75;4938239;29;20031;-83
2023/08/23 03:19:50;;;;;;;6.60;2.73;;;;;;;14.26;100.00;101807.50;4921322;29;20032;-83
2023/08/23 03:22:15;;;;;;;7.20;2.40;;;;;;;14.27;100.00;101810.03;4904892;29;20099;-83
2023/08/23 03:24:41;;;;;;;5.93;3.00;;;;;;;14.19;100.00;101799.38;4921278;29;20488;-83
2023/08/23 03:27:06;;;;;;;4.17;2.87;;;;;;;14.19;100.00;101797.47;4938319;29;20039;-83
2023/08/23 03:29:31;;;;;;;8.10;3.23;;;;;;;14.20;100.00;101799.16;4938252;29;20067;-84
2023/08/23 03:31:57;;;;;;;7.85;3.20;;;;;;;14.20;100.00;101803.75;4920240;29;20035;-83
2023/08/23 03:34:22;;;;;;;7.10;3.00;;;;;;;14.20;100.00;101809.22;4920395;29;20042;-83
2023/08/23 03:36:48;;;;;;;5.70;2.63;;;;;;;14.18;100.00;101808.59;4905313;29;20373;-83
2023/08/23 03:39:14;;;;;;;7.40;2.50;;;;;;;14.15;100.00;101807.13;4937442;29;20129;-83
2023/08/23 03:41:39;;;;;;;7.43;2.30;;;;;;;14.16;100.00;101816.19;4937156;29;20485;-84
2023/08/23 03:44:04;;;;;;;3.77;2.20;;;;;;;14.19;100.00;101813.03;4920632;29;20353;-83
2023/08/23 03:46:30;;;;;;;5.90;2.57;;;;;;;14.18;100.00;101805.88;4937680;29;20036;-83
2023/08/23 03:48:56;;;;;;;5.15;2.40;;;;;;;14.16;100.00;101805.28;4920632;29;20035;-84
2023/08/23 03:51:21;;;;;;;8.70;2.30;;;;;;;14.13;100.00;101800.22;4937138;29;20469;-84
2023/08/23 03:53:47;;;;;;;5.47;2.17;;;;;;;14.14;100.00;101805.47;4937601;29;20027;-84
2023/08/23 03:56:12;;;;;;;9.33;2.53;;;;;;;14.16;100.00;101808.00;4937261;29;20393;-84
2023/08/23 03:58:37;;;;;;;5.38;2.10;;;;;;;14.21;100.00;101810.91;4920064;29;20131;-83
2023/08/23 04:01:03;;;;;;;6.70;2.23;;;;;;;14.23;100.00;101816.97;4919687;29;20118;-83
2023/08/23 04:03:28;;;;;;;8.07;2.30;;;;;;;14.26;100.00;101810.25;4920143;29;20042;-84
2023/08/23 04:05:53;;;;;;;7.97;2.33;;;;;;;14.28;100.00;101808.16;4904353;29;20040;-83
2023/08/23 04:08:19;;;;;;;5.23;2.67;;;;;;;14.28;100.00;101816.34;4904269;29;20035;-83
2023/08/23 04:10:49;;;;;;;6.43;2.78;;;;;;;14.27;100.00;101814.66;4936997;29;20047;-84
2023/08/23 04:13:16;;;;;;;5.20;2.80;;;;;;;14.22;100.00;101807.13;4920154;29;20087;-83
2023/08/23 04:15:42;;;;;;;6.80;2.38;;;;;;;14.16;100.00;101816.19;4919834;29;20032;-83
2023/08/23 04:18:07;;;;;;;4.90;1.92;;;;;;;14.16;100.00;101817.00;4937145;29;20430;-83
2023/08/23 04:20:33;;;;;;;4.37;2.40;;;;;;;14.17;100.00;101820.56;4937103;29;20461;-83
2023/08/23 04:22:58;;;;;;;6.00;2.47;;;;;;;14.11;100.00;101810.50;4936800;29;20043;-83
2023/08/23 04:25:23;;;;;;;6.07;2.87;;;;;;;14.08;100.00;101814.50;4903949;29;20086;-83
2023/08/23 04:27:49;;;;;;;3.75;2.10;;;;;;;14.02;100.00;101818.97;4903480;29;20496;-83
2023/08/23 04:30:14;;;;;;;5.90;2.40;;;;;;;14.01;100.00;101810.97;4919415;29;20035;-84
2023/08/23 04:32:40;;;;;;;4.13;2.50;;;;;;;14.02;100.00;101810.78;4919186;29;20392;-83
2023/08/23 04:35:05;;;;;;;6.13;2.27;;;;;;;14.04;100.00;101814.13;4904822;29;20453;-83
2023/08/23 04:37:31;;;;;;;7.22;2.25;;;;;;;14.09;100.00;101823.56;4936884;29;20087;-83
2023/08/23 04:39:56;;;;;;;4.23;1.97;;;;;;;14.13;100.00;101825.63;4919580;29;20114;-83
2023/08/23 04:42:21;;;;;;;5.77;2.70;;;;;;;14.15;100.00;101819.94;4936843;29;20043;-83
2023/08/23 04:44:47;;;;;;;6.40;2.40;;;;;;;14.20;100.00;101825.59;4936756;29;20107;-83
2023/08/23 04:47:12;;;;;;;4.17;2.70;;;;;;;14.21;100.00;101821.81;4919983;29;20046;-83
2023/08/23 04:49:38;;;;;;;5.18;2.58;;;;;;;14.23;100.00;101822.44;4903661;29;20532;-83
2023/08/23 04:52:03;;;;;;;6.47;3.03;;;;;;;14.23;100.00;101816.97;4918939;29;20412;-84
2023/08/23 04:54:29;;;;;;;4.87;3.13;;;;;;;14.27;100.00;101818.22;4903318;29;20039;-83
2023/08/23 04:56:54;;;;;;;4.80;2.85;;;;;;;14.27;100.00;101817.38;4919149;29;20396;-83
2023/08/23 04:59:19;;;;;;;6.13;2.93;;;;;;;14.31;100.00;101827.66;4936574;29;20385;-83
2023/08/23 05:01:48;;;;;;;7.43;3.80;;;;;;;14.35;100.00;101812.53;4919083;29;20119;-84
2023/08/23 05:04:13;;;;;;;9.95;3.85;;;;;;;14.45;100.00;101817.50;4919382;29;20031;-83
2023/08/23 05:06:40;;;;;;;9.67;3.30;;;;;;;14.55;100.00;101823.31;4936249;29;20063;-83
2023/08/23 05:09:05;;;;;;;7.80;3.42;;;;;;;14.62;100.00;101820.59;4919749;29;20031;-83
2023/08/23 05:11:31;;;;;;;5.67;3.80;;;;;;;14.68;100.00;101824.38;4936308;29;20031;-84
2023/08/23 05:13:57;;;;;;;9.43;3.90;;;;;;;14.73;100.00;101809.00;4919271;29;20036;-84
2023/08/23 05:16:22;;;;;;;12.53;4.03;;;;;;;14.77;100.00;101808.56;4937038;29;20040;-84
2023/08/23 05:18:47;;;;;;;9.73;4.03;;;;;;;14.79;100.00;101803.69;4919249;29;20095;-84
2023/08/23 05:21:14;;;;;;;8.52;3.67;;;;;;;14.83;100.00;101800.28;4919399;29;20119;-83
2023/08/23 05:23:39;;;;;;;9.27;3.80;;;;;;;14.83;100.00;101797.56;4919811;29;20448;-84
2023/08/23 05:26:05;;;;;;;12.43;4.22;;;;;;;14.80;100.00;101798.00;4936401;29;20031;-84
2023/08/23 05:28:32;;;;;;;10.63;3.93;;;;;;;14.83;100.00;101804.94;4936211;29;20032;-84
2023/08/23 05:30:57;;;;;;;8.97;4.53;;;;;;;14.80;100.00;101808.09;4936374;29;20299;-85
2023/08/23 05:33:23;;;;;;;9.07;4.82;;;;;;;14.78;100.00;101810.22;4918858;29;20143;-84
2023/08/23 05:35:48;;;;;;;11.00;4.73;;;;;;;14.78;100.00;101810.22;4919104;29;20361;-85
2023/08/23 05:38:14;;;;;;;6.90;4.40;;;;;;;14.78;100.00;101811.06;4919290;29;20156;-84
2023/08/23 05:40:39;;;;;;;13.00;4.67;;;;;;;14.78;100.00;101813.78;4919558;29;20465;-84
2023/08/23 05:43:06;;;;;;;7.65;4.40;;;;;;;14.78;100.00;101811.06;4919059;29;20043;-85
2023/08/23 05:45:31;;;;;;;9.57;4.40;;;;;;;14.81;100.00;101816.09;4936025;29;20119;-85
2023/08/23 05:47:59;;;;;;;10.13;4.53;;;;;;;14.84;100.00;101812.09;4935985;29;20106;-84
2023/08/23 05:50:25;;;;;;;10.70;4.53;;;;;;;14.88;100.00;101816.03;4935648;29;20526;-85
2023/08/23 05:52:50;;;;;;;12.10;5.20;;;;;;;14.91;100.00;101821.03;4919085;29;20063;-84
2023/08/23 05:55:16;;;;;;;6.85;5.50;;;;;;;14.95;100.00;101808.63;4919372;29;20495;-87
2023/08/23 05:57:41;;;;;;;8.07;6.07;;;;;;;15.04;100.00;101817.38;4935867;29;20465;-87
2023/08/23 06:00:09;;;;;;;8.17;5.50;;;;;;;15.08;100.00;101822.19;4903254;29;20174;-88
2023/08/23 06:02:35;;;;;;;10.90;5.60;;;;;;;15.13;100.00;101829.72;4919010;29;20032;-87
2023/08/23 06:05:00;;;;;;;10.18;5.78;;;;;;;15.20;100.00;101830.50;4935682;29;20056;-86
2023/08/23 06:07:26;;;;;;;10.23;5.60;;;;;;;15.24;100.00;101828.19;4921777;29;20465;-86
2023/08/23 06:09:51;;;;;;;9.40;5.60;;;;;;;15.29;100.00;101830.25;4939169;29;20035;-86
2023/08/23 06:12:17;;;;;;;12.17;6.50;;;;;;;15.37;100.00;101824.50;4921864;29;20115;-86
2023/08/23 06:14:42;;;;;;;10.98;6.70;;;;;;;15.38;100.00;101826.16;4939087;29;20063;-86
2023/08/23 06:17:07;;;;;;;9.30;6.10;;;;;;;15.49;100.00;101828.16;4922011;29;20067;-86
2023/08/23 06:19:33;;;;;;;13.47;6.50;;;;;;;15.56;100.00;101828.09;4922158;29;20095;-86
2023/08/23 06:21:58;;;;;;;10.70;6.77;;;;;;;15.63;100.00;101839.00;4921678;29;20062;-86
2023/08/23 06:24:24;;;;;;;9.33;6.60;;;;;;;15.70;100.00;101835.13;4921732;29;20079;-86
2023/08/23 06:26:50;;;;;;;12.25;7.43;;;;;;;15.79;100.00;101836.53;4938709;29;20040;-86
2023/08/23 06:29:16;;;;;;;11.97;7.83;;;;;;;15.88;100.00;101838.97;4921996;29;20054;-86
2023/08/23 06:31:42;;;;;;;12.95;8.02;;;;;;;15.92;100.00;101838.28;4922272;29;20035;-87
2023/08/23 06:34:07;;;;;;;10.97;7.93;;;;;;;15.98;100.00;101825.59;4921537;29;20111;-87
2023/08/23 06:36:32;;;;;;;11.60;7.70;;;;;;;16.05;100.00;101831.84;4921928;29;20469;-86
2023/08/23 06:38:58;;;;;;;14.50;8.07;;;;;;;16.14;100.00;101837.84;4921636;29;20119;-87
2023/08/23 06:41:23;;;;;;;13.07;7.87;;;;;;;16.23;100.00;101838.38;4938584;29;20035;-86
2023/08/23 06:43:48;;;;;;;11.47;7.67;;;;;;;16.29;100.00;101843.75;4938481;29;20038;-86
2023/08/23 06:46:14;;;;;;;12.60;7.30;;;;;;;16.33;100.00;101835.94;4921477;29;20039;-86
2023/08/23 06:48:40;;;;;;;10.55;7.55;;;;;;;16.42;100.00;101831.81;4905730;29;20515;-87
2023/08/23 06:51:06;;;;;;;10.23;6.95;;;;;;;16.51;100.00;101829.59;4921156;29;20048;-86
2023/08/23 06:53:33;;;;;;;11.97;7.27;;;;;;;16.58;100.00;101838.56;4921203;29;20039;-87
2023/08/23 06:55:58;;;;;;;10.57;7.43;;;;;;;16.65;100.00;101841.19;4921541;29;20047;-86
2023/08/23 06:58:24;;;;;;;11.68;7.80;;;;;;;16.73;100.00;101842.78;4905429;29;20040;-87
2023/08/23 07:00:49;;;;;;;10.57;7.47;;;;;;;16.82;100.00;101847.69;4889858;29;20070;-86
2023/08/23 07:03:14;;;;;;;10.70;7.87;;;;;;;16.91;100.00;101858.38;4938111;29;20035;-87
2023/08/23 07:05:41;;;;;;;9.73;7.77;;;;;;;17.02;100.00;101854.81;4938175;29;20388;-87
2023/08/23 07:08:09;;;;;;;11.45;7.35;;;;;;;17.09;100.00;101857.47;4920666;29;20028;-87
2023/08/23 07:10:35;;;;;;;10.10;7.22;;;;;;;17.16;100.00;101860.94;4905458;29;20397;-86
2023/08/23 07:13:01;;;;;;;8.85;6.38;;;;;;;17.23;100.00;101861.69;4920967;29;20119;-84
2023/08/23 07:15:26;;;;;;;13.07;7.07;;;;;;;17.33;100.00;101863.81;4920827;29;20516;-85
2023/08/23 07:17:54;;;;;;;12.27;6.77;;;;;;;17.42;100.00;101861.56;4920137;29;20038;-85
2023/08/23 07:20:20;;;;;;;11.07;6.47;;;;;;;17.54;100.00;101871.50;4905849;29;20032;-84
2023/08/23 07:22:45;;;;;;;10.03;6.20;;;;;;;17.62;100.00;101864.81;4938392;29;20055;-85
2023/08/23 07:25:11;;;;;;;11.07;6.75;;;;;;;17.71;100.00;101876.28;4938045;29;20059;-85
2023/08/23 07:27:36;;;;;;;7.83;6.33;;;;;;;17.77;100.00;101875.31;4937746;29;20093;-84
2023/08/23 07:30:03;;;;;;;11.20;6.43;;;;;;;17.87;100.00;101877.47;4921017;29;20036;-84
2023/08/23 07:32:30;;;;;;;10.95;6.25;;;;;;;17.96;100.00;101873.31;4937657;29;20083;-85
2023/08/23 07:34:56;;;;;;;11.52;6.43;;;;;;;18.06;100.00;101880.94;4921423;29;20126;-85
2023/08/23 07:37:22;;;;;;;9.52;5.60;;;;;;;18.13;100.00;101886.31;4905555;29;20126;-85
2023/08/23 07:39:48;;;;;;;10.27;5.85;;;;;;;18.21;100.00;101886.75;4905050;29;20036;-84
2023/08/23 07:42:13;;;;;;;11.43;5.83;;;;;;;18.27;100.00;101876.72;4889163;29;20473;-85
2023/08/23 07:44:39;;;;;;;9.57;5.83;;;;;;;18.36;100.00;101883.50;4920575;29;20032;-86
2023/08/23 07:47:07;;;;;;;10.70;5.68;;;;;;;18.43;100.00;101888.06;4904478;29;20080;-85
2023/08/23 07:49:33;;;;;;;14.13;5.73;;;;;;;18.50;100.00;101889.59;4920383;29;20043;-85
2023/08/23 07:51:58;;;;;;;13.20;5.37;;;;;;;18.55;100.00;101895.16;4904320;29;20059;-85
2023/08/23 07:54:24;;;;;;;9.48;6.10;;;;;;;18.64;100.00;101886.56;4920754;29;20149;-84
2023/08/23 07:56:49;;;;;;;9.83;6.77;;;;;;;18.69;100.00;101887.50;4937431;29;20114;-84
2023/08/23 07:59:14;;;;;;;11.07;6.57;;;;;;;18.76;100.00;101887.31;4937174;29;20542;-85
2023/08/23 08:01:40;;;;;;;8.43;6.40;;;;;;;18.81;100.00;101883.84;4904110;29;20088;-85
2023/08/23 08:04:16;;;;;;;8.45;6.45;;;;;;;18.85;100.00;101883.13;4903839;29;20039;-85
2023/08/23 08:06:42;;;;;;;11.63;6.13;;;;;;;18.91;100.00;101884.06;4906003;29;20130;-85
2023/08/23 08:09:07;;;;;;;14.43;6.57;;;;;;;18.99;99.02;101891.09;4936760;29;20515;-85
2023/08/23 08:11:33;;;;;;;7.63;5.93;;;;;;;19.01;99.68;101876.00;4919913;29;20275;-85
2023/08/23 08:13:58;;;;;;;9.30;5.80;;;;;;;19.05;99.04;101879.94;4888467;29;20433;-85
2023/08/23 08:16:26;;;;;;;9.33;6.00;;;;;;;19.14;98.71;101885.88;4919891;29;20472;-85
2023/08/23 08:18:51;;;;;;;9.00;5.53;;;;;;;19.20;99.01;101881.28;4937202;29;20032;-86
2023/08/23 08:21:19;;;;;;;9.97;4.90;;;;;;;19.27;96.25;101885.56;4936791;29;20035;-86
2023/08/23 08:23:47;;;;;;;10.70;5.57;;;;;;;19.39;95.26;101888.22;4920525;29;20115;-85
2023/08/23 08:26:13;;;;;;;7.78;4.72;;;;;;;19.48;94.25;101882.31;4920506;29;20040;-86
2023/08/23 08:28:42;;;;;;;8.67;4.90;;;;;;;19.52;95.85;101887.06;4919270;29;20087;-85
2023/08/23 08:31:08;;;;;;;8.43;4.60;;;;;;;19.58;93.66;101888.00;4920151;29;20032;-86
2023/08/23 08:33:34;;;;;;;5.25;3.58;;;;;;;19.70;92.03;101883.22;4919523;29;20114;-86
2023/08/23 08:36:00;;;;;;;6.63;3.80;;;;;;;19.78;92.62;101877.31;4936851;29;20442;-86
2023/08/23 08:38:32;;;;;;;6.55;2.85;;;;;;;19.84;91.11;101869.13;4919426;29;20031;-86
2023/08/23 08:40:58;;;;;;;4.30;3.10;;;;;;;19.93;90.62;101875.88;4937737;29;20095;-86
2023/08/23 08:43:24;;;;;;;4.10;3.07;;;;;;;19.99;87.95;101869.38;4918999;29;20051;-86
2023/08/23 08:45:50;;;;;;;7.07;3.50;;;;;;;20.06;89.11;101869.97;4936489;29;20032;-86
2023/08/23 08:48:16;;;;;;;6.37;3.27;;;;;;;20.10;86.85;101871.16;4919354;29;20087;-86
2023/08/23 08:50:45;;;;;;;6.60;3.58;;;;;;;20.14;86.61;101875.06;4919531;29;20070;-86
2023/08/23 08:53:16;;;;;;;8.38;3.65;;;;;;;20.21;85.96;101874.91;4936725;29;20453;-86
2023/08/23 08:55:44;;;;;;;5.90;3.00;;;;;;;20.28;86.20;101875.50;4904373;29;20373;-86
2023/08/23 08:58:11;;;;;;;3.85;2.97;;;;;;;20.37;86.49;101870.38;4903853;29;20051;-85
2023/08/23 09:00:37;;;;;;;10.45;3.35;;;;;;;20.44;85.21;101872.97;4919674;29;20378;-85
2023/08/23 09:03:03;;;;;;;14.02;3.65;;;;;;;20.54;85.34;101872.25;4919305;29;20032;-86
2023/08/23 09:05:31;;;;;;;15.13;3.65;;;;;;;20.61;86.20;101868.22;4936590;29;20067;-86
2023/08/23 09:07:56;;;;;;;29.83;4.63;;;;;;;20.72;87.23;101873.88;4919145;29;20563;-86
2023/08/23 09:10:23;;;;;;;23.42;3.63;;;;;;;20.85;87.60;101874.28;4919525;29;20065;-85
2023/08/23 09:12:49;;;;;;;23.10;3.57;;;;;;;20.95;85.57;101872.72;4919421;29;20168;-86
2023/08/23 09:15:19;;;;;;;7.68;3.42;;;;;;;21.01;83.60;101869.75;4936236;29;20035;-85
2023/08/23 09:17:44;;;;;;;13.15;4.55;;;;;;;21.06;81.98;101868.16;4919454;29;20039;-86
2023/08/23 09:20:10;;;;;;;8.83;3.40;;;;;;;21.16;83.26;101873.75;4903087;29;20028;-86
2023/08/23 09:22:36;;;;;;;11.93;4.07;;;;;;;21.26;84.26;101873.84;4919343;29;20040;-86
2023/08/23 09:25:05;;;;;;;18.17;4.57;;;;;;;21.36;83.96;101876.69;4903385;29;20055;-86
2023/08/23 09:27:31;;;;;;;21.75;5.35;;;;;;;21.46;82.66;101870.41;4936030;29;20063;-86
2023/08/23 09:29:58;;;;;;;18.50;4.90;;;;;;;21.49;81.36;101875.41;4919354;29;20063;-86
2023/08/23 09:32:25;;;;;;;18.83;4.67;;;;;;;21.60;81.33;101881.03;4918791;29;20035;-86
2023/08/23 09:34:50;;;;;;;13.20;4.90;;;;;;;21.69;82.73;101885.81;4918880;29;20079;-85
2023/08/23 09:37:18;;;;;;;10.83;5.50;;;;;;;21.82;81.83;101890.06;4936277;29;20027;-86
2023/08/23 09:39:44;;;;;;;10.30;5.50;;;;;;;21.93;81.43;101884.59;4935956;29;20031;-86
2023/08/23 09:42:14;;;;;;;12.70;5.78;;;;;;;21.98;80.43;101879.94;4939631;29;20504;-85
2023/08/23 09:44:43;;;;;;;10.35;5.50;;;;;;;22.08;78.93;101879.13;4922486;29;20036;-85
2023/08/23 09:47:15;;;;;;;9.13;5.60;;;;;;;22.16;79.09;101867.59;4939675;29;20059;-85
2023/08/23 09:49:43;;;;;;;15.18;6.22;;;;;;;22.32;80.64;101870.44;4940100;29;20072;-86
2023/08/23 09:52:10;;;;;;;9.30;5.40;;;;;;;22.37;77.89;101865.75;4939408;29;20048;-86
2023/08/23 09:54:49;;;;;;;11.30;5.72;;;;;;;22.39;76.98;101871.84;4939133;29;20027;-86
2023/08/23 09:57:19;;;;;;;9.63;6.07;;;;;;;22.63;77.27;101873.31;4939406;29;20024;-86
2023/08/23 09:59:44;;;;;;;10.87;5.73;;;;;;;22.74;76.36;101883.31;4939265;29;20083;-86
2023/08/23 10:02:14;;;;;;;9.68;6.35;;;;;;;22.78;76.62;101881.66;4906210;29;20039;-86
2023/08/23 10:04:42;;;;;;;8.80;6.20;;;;;;;22.99;75.04;101884.44;4938984;29;20099;-86
2023/08/23 10:07:08;;;;;;;7.33;5.03;;;;;;;23.18;76.19;101877.31;4939427;29;20038;-85
2023/08/23 10:09:35;;;;;;;10.85;5.95;;;;;;;23.32;74.34;101876.78;4938766;29;20036;-86
2023/08/23 10:12:06;;;;;;;11.85;5.78;;;;;;;23.48;73.16;101879.25;4922810;29;20035;-86
2023/08/23 10:14:34;;;;;;;12.23;5.00;;;;;;;23.78;73.02;101874.81;4922342;29;20102;-85
2023/08/23 10:17:02;;;;;;;8.20;5.32;;;;;;;23.92;71.69;101866.75;4921914;29;20062;-86
2023/08/23 10:19:28;;;;;;;7.70;5.20;;;;;;;23.99;71.42;101872.84;4921812;29;20035;-85
2023/08/23 10:21:54;;;;;;;7.63;5.57;;;;;;;23.93;70.22;101867.56;4921468;29;20400;-85
2023/08/23 10:24:33;;;;;;;9.60;6.40;;;;;;;23.88;68.90;101870.38;4921842;29;20047;-85
2023/08/23 10:27:06;;;;;;;12.50;5.97;;;;;;;24.11;69.26;101871.66;4922558;29;20068;-86
2023/08/23 10:29:34;;;;;;;8.63;5.32;;;;;;;24.25;68.16;101874.69;4921673;29;20047;-85
2023/08/23 10:32:04;;;;;;;8.17;5.53;;;;;;;24.18;66.47;101866.66;4921993;29;20042;-86
2023/08/23 10:34:34;;;;;;;8.10;4.75;;;;;;;24.21;66.42;101871.63;4921894;29;20036;-86
2023/08/23 10:36:59;;;;;;;7.40;4.38;;;;;;;24.23;65.46;101874.97;4921574;29;20083;-86
2023/08/23 10:39:26;;;;;;;5.70;4.60;;;;;;;24.12;63.22;101873.34;4905521;29;20040;-86
2023/08/23 10:41:55;;;;;;;9.75;5.95;;;;;;;24.12;64.26;101865.88;4921343;29;20035;-86
2023/08/23 10:44:23;;;;;;;10.68;5.88;;;;;;;24.51;65.43;101865.13;4921445;29;20058;-86
2023/08/23 10:46:51;;;;;;;10.55;5.25;;;;;;;24.94;64.49;101849.94;4938464;29;20036;-86
2023/08/23 10:49:21;;;;;;;8.33;5.30;;;;;;;25.14;63.10;101863.66;4938445;29;20027;-86
2023/08/23 10:51:47;;;;;;;14.95;5.78;;;;;;;24.86;61.93;101848.56;4920179;29;20077;-86
2023/08/23 10:54:14;;;;;;;10.80;5.30;;;;;;;24.62;62.76;101846.50;4921283;29;20042;-86
2023/08/23 10:56:40;;;;;;;10.15;5.82;;;;;;;24.73;62.56;101846.44;4938381;29;20119;-86
2023/08/23 10:59:07;;;;;;;7.57;4.30;;;;;;;24.87;59.08;101850.25;4937951;29;20042;-86
2023/08/23 11:01:34;;;;;;;7.10;4.50;;;;;;;24.87;58.20;101841.91;4921060;29;20094;-86
2023/08/23 11:04:01;;;;;;;7.53;3.55;;;;;;;25.09;59.88;101835.09;4920789;29;20063;-86
2023/08/23 11:06:26;;;;;;;6.03;4.05;;;;;;;25.57;59.81;101835.25;4921510;29;20457;-86
2023/08/23 11:08:52;;;;;;;6.97;4.10;;;;;;;25.72;58.12;101832.31;4921003;29;20042;-86
2023/08/23 11:11:17;;;;;;;9.07;4.00;;;;;;;26.16;57.99;101829.59;4920896;29;20043;-86
2023/08/23 11:13:45;;;;;;;6.82;3.53;;;;;;;26.18;53.89;101824.59;4921360;29;20040;-86